createdAt,value
2018-04-29T00:02:15.185Z,4.30
2018-04-29T00:04:42.719Z,4.30
2018-04-29T00:07:10.236Z,4.20
2018-04-29T00:09:37.780Z,4.70
2018-04-29T00:12:06.067Z,3.90
2018-04-29T00:14:34.369Z,3.73
2018-04-29T00:17:01.889Z,4.13
2018-04-29T00:19:29.423Z,3.57
2018-04-29T00:21:56.939Z,4.40
2018-04-29T00:24:25.232Z,4.13
2018-04-29T00:26:52.753Z,3.70
2018-04-29T00:29:20.288Z,4.87
2018-04-29T00:31:47.800Z,4.07
2018-04-29T00:34:16.108Z,3.80
2018-04-29T00:36:43.624Z,4.00
2018-04-29T00:39:11.188Z,4.47
2018-04-29T00:41:39.476Z,4.90
2018-04-29T00:44:07.759Z,4.57
2018-04-29T00:46:36.060Z,4.67
2018-04-29T00:49:03.575Z,5.20
2018-04-29T00:51:43.125Z,6.30
2018-04-29T00:54:11.406Z,4.43
2018-04-29T00:56:38.941Z,5.60
2018-04-29T00:59:06.501Z,6.00
2018-04-29T01:01:34.055Z,5.30
2018-04-29T01:04:01.570Z,4.13
2018-04-29T01:06:29.875Z,4.17
2018-04-29T01:08:57.389Z,4.10
2018-04-29T01:11:24.927Z,4.10
2018-04-29T01:13:52.445Z,4.20
2018-04-29T01:16:20.743Z,3.93
2018-04-29T01:18:48.258Z,4.83
2018-04-29T01:21:15.796Z,4.90
2018-04-29T01:23:43.307Z,5.10
2018-04-29T01:26:11.604Z,4.93
2018-04-29T01:28:39.116Z,5.00
2018-04-29T01:31:06.652Z,4.50
2018-04-29T01:33:34.171Z,5.53
2018-04-29T01:36:01.703Z,5.20
2018-04-29T01:38:29.215Z,5.40
2018-04-29T01:40:56.753Z,4.90
2018-04-29T01:43:24.272Z,4.17
2018-04-29T01:45:51.834Z,3.63
2018-04-29T01:48:19.351Z,3.80
2018-04-29T01:50:47.630Z,4.87
2018-04-29T01:53:15.931Z,5.80
2018-04-29T01:55:43.449Z,4.97
2018-04-29T01:58:10.982Z,5.27
2018-04-29T02:00:38.501Z,4.50
2018-04-29T02:03:06.799Z,4.40
2018-04-29T02:05:34.317Z,4.17
2018-04-29T02:08:01.860Z,3.90
2018-04-29T02:10:30.140Z,3.87
2018-04-29T02:12:57.675Z,4.40
2018-04-29T02:15:25.187Z,3.90
2018-04-29T02:17:52.715Z,4.70
2018-04-29T02:20:20.229Z,4.10
2018-04-29T02:22:48.535Z,4.70
2018-04-29T02:25:16.056Z,4.23
2018-04-29T02:27:44.363Z,5.00
2018-04-29T02:30:11.877Z,4.33
2018-04-29T02:32:39.397Z,4.80
2018-04-29T02:35:06.932Z,4.73
2018-04-29T02:37:35.225Z,3.83
2018-04-29T02:40:02.767Z,5.53
2018-04-29T02:42:31.053Z,5.50
2018-04-29T02:44:58.596Z,4.20
2018-04-29T02:47:26.114Z,4.20
2018-04-29T02:49:53.648Z,3.80
2018-04-29T02:52:21.162Z,3.70
2018-04-29T02:54:48.695Z,3.63
2018-04-29T02:57:16.217Z,3.80
2018-04-29T02:59:44.516Z,2.97
2018-04-29T03:02:12.043Z,4.40
2018-04-29T03:04:39.576Z,3.70
2018-04-29T03:07:07.097Z,3.50
2018-04-29T03:09:34.627Z,3.80
2018-04-29T03:12:02.144Z,3.60
2018-04-29T03:14:29.661Z,3.20
2018-04-29T03:16:57.964Z,3.13
2018-04-29T03:19:25.482Z,3.10
2018-04-29T03:21:53.053Z,3.00
2018-04-29T03:24:20.560Z,3.03
2018-04-29T03:26:48.095Z,3.03
2018-04-29T03:29:16.374Z,3.43
2018-04-29T03:31:44.672Z,3.97
2018-04-29T03:34:12.208Z,5.37
2018-04-29T03:36:40.517Z,2.90
2018-04-29T03:39:08.031Z,2.50
2018-04-29T03:41:35.563Z,3.30
2018-04-29T03:44:03.083Z,3.33
2018-04-29T03:46:31.383Z,4.37
2018-04-29T03:48:58.895Z,4.07
2018-04-29T03:51:26.438Z,4.67
2018-04-29T03:53:53.960Z,5.17
2018-04-29T03:56:21.481Z,5.13
2018-04-29T03:59:00.820Z,5.13
2018-04-29T04:01:40.150Z,3.47
2018-04-29T04:04:07.663Z,3.00
2018-04-29T04:06:35.191Z,2.90
2018-04-29T04:09:02.739Z,2.77
2018-04-29T04:11:30.270Z,2.43
2018-04-29T04:13:57.799Z,3.03
2018-04-29T04:16:26.075Z,2.57
2018-04-29T04:18:54.377Z,3.03
2018-04-29T04:21:21.889Z,3.00
2018-04-29T04:23:49.439Z,3.00
2018-04-29T04:26:16.956Z,4.33
2018-04-29T04:28:44.496Z,4.00
2018-04-29T04:31:12.775Z,3.20
2018-04-29T04:33:41.071Z,3.17
2018-04-29T04:36:08.579Z,2.87
2018-04-29T04:38:36.118Z,2.70
2018-04-29T04:41:03.641Z,2.90
2018-04-29T04:43:31.935Z,3.00
2018-04-29T04:45:59.457Z,3.57
2018-04-29T04:48:26.982Z,3.63
2018-04-29T04:50:54.511Z,2.73
2018-04-29T04:53:22.798Z,3.20
2018-04-29T04:55:50.333Z,3.87
2018-04-29T04:58:17.843Z,3.00
2018-04-29T05:00:45.377Z,2.77
2018-04-29T05:03:12.903Z,2.87
2018-04-29T05:05:40.436Z,2.90
2018-04-29T05:08:07.943Z,2.90
2018-04-29T05:10:35.484Z,3.70
2018-04-29T05:13:03.000Z,3.87
2018-04-29T05:15:30.538Z,4.70
2018-04-29T05:17:58.825Z,6.00
2018-04-29T05:20:27.139Z,5.90
2018-04-29T05:22:54.659Z,4.97
2018-04-29T05:25:22.963Z,4.40
2018-04-29T05:27:50.481Z,5.63
2018-04-29T05:30:18.020Z,5.67
2018-04-29T05:32:45.533Z,3.40
2018-04-29T05:35:13.832Z,5.30
2018-04-29T05:37:41.354Z,3.60
2018-04-29T05:40:08.888Z,4.27
2018-04-29T05:42:36.395Z,4.50
2018-04-29T05:45:04.681Z,4.27
2018-04-29T05:47:32.217Z,3.73
2018-04-29T05:50:00.511Z,3.73
2018-04-29T05:52:28.817Z,4.87
2018-04-29T05:54:56.332Z,4.10
2018-04-29T05:57:23.868Z,4.80
2018-04-29T05:59:51.384Z,4.50
2018-04-29T06:02:18.928Z,4.07
2018-04-29T06:04:47.211Z,4.73
2018-04-29T06:07:15.514Z,5.07
2018-04-29T06:09:43.043Z,5.50
2018-04-29T06:12:11.347Z,5.40
2018-04-29T06:14:38.867Z,5.17
2018-04-29T06:17:06.400Z,4.93
2018-04-29T06:19:33.921Z,6.00
2018-04-29T06:22:02.225Z,5.20
2018-04-29T06:24:30.575Z,5.23
2018-04-29T06:26:58.878Z,4.90
2018-04-29T06:29:26.401Z,4.37
2018-04-29T06:31:54.001Z,5.50
2018-04-29T06:34:22.260Z,5.60
2018-04-29T06:36:49.796Z,6.90
2018-04-29T06:39:17.333Z,4.53
2018-04-29T06:41:44.853Z,4.83
2018-04-29T06:44:13.157Z,5.97
2018-04-29T06:46:40.672Z,4.53
2018-04-29T06:49:08.205Z,4.60
2018-04-29T06:51:35.718Z,5.30
2018-04-29T06:54:04.017Z,5.60
2018-04-29T06:56:31.538Z,5.10
2018-04-29T06:58:59.075Z,3.87
2018-04-29T07:01:26.588Z,4.67
2018-04-29T07:03:54.125Z,3.63
2018-04-29T07:06:21.636Z,4.30
2018-04-29T07:08:49.172Z,4.10
2018-04-29T07:11:17.459Z,3.60
2018-04-29T07:13:45.004Z,3.83
2018-04-29T07:16:13.299Z,4.13
2018-04-29T07:18:40.822Z,3.40
2018-04-29T07:21:08.357Z,3.60
2018-04-29T07:23:35.878Z,2.97
2018-04-29T07:26:04.271Z,3.80
2018-04-29T07:28:31.716Z,4.53
2018-04-29T07:31:00.020Z,5.20
2018-04-29T07:33:27.536Z,3.73
2018-04-29T07:35:55.075Z,3.60
2018-04-29T07:38:22.590Z,3.07
2018-04-29T07:40:50.127Z,3.30
2018-04-29T07:43:17.647Z,3.07
2018-04-29T07:45:45.208Z,3.20
2018-04-29T07:48:12.735Z,3.30
2018-04-29T07:50:41.039Z,2.47
2018-04-29T07:53:08.557Z,2.10
2018-04-29T07:55:36.087Z,3.00
2018-04-29T07:58:03.609Z,2.20
2018-04-29T08:00:31.147Z,3.00
2018-04-29T08:02:59.447Z,2.77
2018-04-29T08:05:26.952Z,2.17
2018-04-29T08:07:55.256Z,2.87
2018-04-29T08:10:22.772Z,2.80
2018-04-29T08:12:50.308Z,2.93
2018-04-29T08:15:17.825Z,2.77
2018-04-29T08:17:45.362Z,2.53
2018-04-29T08:20:12.883Z,2.30
2018-04-29T08:22:40.485Z,2.50
2018-04-29T08:25:08.729Z,2.37
2018-04-29T08:27:37.041Z,2.20
2018-04-29T08:30:04.560Z,2.70
2018-04-29T08:32:32.099Z,2.07
2018-04-29T08:34:59.616Z,2.10
2018-04-29T08:37:27.155Z,2.40
2018-04-29T08:39:55.438Z,2.40
2018-04-29T08:44:57.756Z,2.03
2018-04-29T08:47:25.325Z,2.23
2018-04-29T08:49:52.831Z,2.10
2018-04-29T08:52:20.368Z,1.87
2018-04-29T08:54:47.952Z,1.90
2018-04-29T08:57:15.428Z,2.10
2018-04-29T08:59:42.965Z,1.90
2018-04-29T09:02:10.482Z,1.80
2018-04-29T09:04:38.019Z,1.70
2018-04-29T09:07:06.297Z,1.97
2018-04-29T09:09:34.605Z,2.07
2018-04-29T09:12:02.116Z,1.97
2018-04-29T09:14:29.647Z,1.80
2018-04-29T09:16:57.190Z,1.70
2018-04-29T09:19:24.715Z,2.00
2018-04-29T09:21:52.238Z,1.70
2018-04-29T09:24:19.781Z,2.30
2018-04-29T09:26:47.304Z,1.90
2018-04-29T09:29:15.629Z,2.13
2018-04-29T09:31:43.144Z,2.17
2018-04-29T09:34:10.686Z,2.10
2018-04-29T09:36:38.210Z,3.20
2018-04-29T09:39:05.781Z,2.90
2018-04-29T09:41:33.299Z,2.27
2018-04-29T09:44:00.832Z,3.17
2018-04-29T09:46:28.371Z,3.10
2018-04-29T09:48:55.901Z,2.93
2018-04-29T09:51:24.184Z,3.10
2018-04-29T09:53:51.700Z,2.40
2018-04-29T09:56:19.237Z,2.70
2018-04-29T09:58:46.747Z,2.73
2018-04-29T10:01:17.978Z,2.90
2018-04-29T10:03:48.016Z,3.50
2018-04-29T10:06:16.324Z,3.10
2018-04-29T10:08:43.849Z,3.27
2018-04-29T10:11:11.388Z,3.20
2018-04-29T10:13:38.903Z,3.00
2018-04-29T10:16:06.440Z,3.30
2018-04-29T10:18:33.955Z,3.70
2018-04-29T10:21:01.487Z,3.43
2018-04-29T10:23:29.013Z,3.00
2018-04-29T10:25:56.552Z,3.60
2018-04-29T10:28:24.078Z,3.90
2018-04-29T10:30:51.612Z,3.27
2018-04-29T10:33:19.903Z,3.17
2018-04-29T10:35:48.212Z,3.20
2018-04-29T10:38:15.735Z,2.87
2018-04-29T10:40:44.012Z,3.10
2018-04-29T10:43:12.330Z,3.37
2018-04-29T10:45:39.865Z,3.43
2018-04-29T10:48:08.157Z,3.60
2018-04-29T10:50:35.680Z,3.60
2018-04-29T10:53:03.220Z,3.57
2018-04-29T10:55:30.736Z,4.07
2018-04-29T10:57:58.274Z,3.90
2018-04-29T11:00:25.792Z,3.30
2018-04-29T11:02:53.328Z,3.70
2018-04-29T11:05:20.899Z,3.20
2018-04-29T11:07:48.440Z,3.47
2018-04-29T11:10:16.728Z,3.80
2018-04-29T11:12:44.265Z,3.53
2018-04-29T11:15:11.785Z,3.13
2018-04-29T11:17:39.320Z,3.77
2018-04-29T11:20:06.895Z,3.67
2018-04-29T11:22:34.440Z,3.73
2018-04-29T11:25:01.956Z,3.83
2018-04-29T11:27:29.476Z,4.20
2018-04-29T11:29:57.017Z,4.50
2018-04-29T11:32:25.296Z,4.83
2018-04-29T11:34:53.596Z,4.17
2018-04-29T11:37:21.111Z,3.63
2018-04-29T11:39:48.640Z,4.20
2018-04-29T11:42:16.159Z,4.50
2018-04-29T11:44:44.456Z,4.40
2018-04-29T11:47:11.973Z,4.33
2018-04-29T11:49:39.510Z,4.10
2018-04-29T11:52:07.029Z,3.83
2018-04-29T11:54:35.333Z,4.17
2018-04-29T11:57:02.847Z,4.17
2018-04-29T11:59:30.388Z,4.47
2018-04-29T12:01:57.915Z,4.70
2018-04-29T12:04:25.486Z,3.93
2018-04-29T12:06:52.993Z,5.13
2018-04-29T12:09:20.508Z,4.60
2018-04-29T12:11:48.043Z,4.40
2018-04-29T12:14:16.327Z,4.37
2018-04-29T12:16:43.860Z,4.33
2018-04-29T12:19:11.380Z,5.10
2018-04-29T12:21:38.911Z,4.40
2018-04-29T12:24:06.429Z,5.07
2018-04-29T12:26:33.965Z,4.70
2018-04-29T12:29:01.953Z,5.00
2018-04-29T12:31:29.487Z,3.90
2018-04-29T12:33:57.002Z,4.50
2018-04-29T12:36:25.311Z,4.30
2018-04-29T12:38:52.829Z,4.90
2018-04-29T12:41:20.366Z,4.93
2018-04-29T12:43:47.886Z,5.20
2018-04-29T12:46:16.195Z,3.90
2018-04-29T12:48:43.712Z,4.40
2018-04-29T12:51:12.013Z,4.37
2018-04-29T12:53:39.545Z,4.00
2018-04-29T12:56:07.853Z,4.33
2018-04-29T12:58:36.134Z,3.80
2018-04-29T13:01:03.657Z,4.07
2018-04-29T13:03:31.187Z,3.57
2018-04-29T13:05:58.705Z,4.63
2018-04-29T13:08:27.004Z,3.30
2018-04-29T13:10:54.515Z,3.80
2018-04-29T13:13:22.149Z,4.10
2018-04-29T13:15:49.663Z,3.43
2018-04-29T13:18:17.276Z,4.60
2018-04-29T13:20:44.788Z,4.80
2018-04-29T13:23:12.329Z,4.90
2018-04-29T13:25:39.847Z,3.30
2018-04-29T13:28:07.386Z,3.93
2018-04-29T13:30:35.681Z,3.30
2018-04-29T13:33:03.989Z,3.53
2018-04-29T13:35:31.507Z,3.90
2018-04-29T13:37:59.814Z,4.70
2018-04-29T13:40:27.331Z,4.70
2018-04-29T13:42:54.871Z,3.60
2018-04-29T13:45:22.387Z,4.37
2018-04-29T13:47:50.704Z,3.83
2018-04-29T13:50:18.233Z,4.20
2018-04-29T13:52:46.511Z,5.07
2018-04-29T13:55:14.816Z,4.57
2018-04-29T13:57:42.331Z,4.70
2018-04-29T14:00:10.636Z,4.50
2018-04-29T14:02:38.151Z,3.80
2018-04-29T14:05:05.681Z,4.10
2018-04-29T14:07:33.203Z,4.30
2018-04-29T14:10:01.507Z,4.00
2018-04-29T14:12:29.026Z,4.20
2018-04-29T14:14:56.560Z,4.50
2018-04-29T14:17:24.076Z,3.60
2018-04-29T14:19:52.400Z,4.27
2018-04-29T14:22:19.970Z,4.13
2018-04-29T14:24:47.468Z,4.13
2018-04-29T14:27:14.988Z,4.20
2018-04-29T14:29:42.525Z,3.63
2018-04-29T14:32:10.043Z,4.50
2018-04-29T14:34:37.589Z,5.20
2018-04-29T14:37:05.107Z,4.47
2018-04-29T14:39:32.626Z,4.30
2018-04-29T14:42:00.180Z,4.30
2018-04-29T14:44:27.701Z,4.30
2018-04-29T14:46:55.234Z,4.43
2018-04-29T14:49:23.537Z,4.77
2018-04-29T14:51:51.071Z,4.40
2018-04-29T14:54:19.361Z,3.77
2018-04-29T14:56:47.666Z,4.20
2018-04-29T14:59:15.184Z,3.80
2018-04-29T15:01:42.713Z,3.50
2018-04-29T15:04:10.237Z,3.40
2018-04-29T15:06:38.544Z,3.70
2018-04-29T15:09:06.063Z,3.60
2018-04-29T15:11:34.359Z,3.60
2018-04-29T15:14:01.897Z,4.00
2018-04-29T15:16:29.429Z,4.00
2018-04-29T15:18:59.612Z,4.03
2018-04-29T15:21:27.143Z,3.10
2018-04-29T15:23:54.656Z,3.57
2018-04-29T15:26:22.196Z,3.50
2018-04-29T15:28:49.716Z,4.47
2018-04-29T15:31:17.251Z,4.10
2018-04-29T15:33:44.772Z,4.00
2018-04-29T15:36:13.089Z,3.53
2018-04-29T15:38:40.603Z,3.70
2018-04-29T15:41:08.879Z,4.33
2018-04-29T15:43:37.181Z,4.13
2018-04-29T15:46:05.467Z,3.80
2018-04-29T15:48:33.008Z,3.77
2018-04-29T15:51:01.297Z,4.07
2018-04-29T15:53:28.848Z,4.23
2018-04-29T15:55:57.132Z,3.70
2018-04-29T15:58:25.428Z,3.60
2018-04-29T16:00:52.958Z,3.67
2018-04-29T16:03:20.497Z,3.77
2018-04-29T16:05:48.782Z,4.50
2018-04-29T16:08:16.324Z,3.80
2018-04-29T16:10:43.836Z,3.80
2018-04-29T16:13:12.150Z,4.33
2018-04-29T16:15:39.669Z,4.30
2018-04-29T16:18:07.185Z,4.40
2018-04-29T16:20:34.720Z,3.40
2018-04-29T16:23:02.244Z,5.00
2018-04-29T16:25:29.785Z,3.60
2018-04-29T16:27:57.307Z,3.83
2018-04-29T16:30:24.845Z,4.03
2018-04-29T16:32:54.513Z,4.50
2018-04-29T16:35:22.889Z,4.80
2018-04-29T16:37:50.420Z,4.20
2018-04-29T16:40:17.964Z,5.90
2018-04-29T16:42:46.247Z,4.10
2018-04-29T16:45:14.550Z,5.20
2018-04-29T16:47:42.076Z,4.50
2018-04-29T16:50:10.394Z,4.40
2018-04-29T16:52:37.913Z,4.73
2018-04-29T16:55:05.454Z,5.23
2018-04-29T16:57:32.967Z,4.50
2018-04-29T17:00:00.508Z,4.23
2018-04-29T17:02:28.797Z,5.60
2018-04-29T17:04:57.101Z,6.27
2018-04-29T17:07:24.616Z,5.40
2018-04-29T17:09:52.132Z,5.93
2018-04-29T17:12:19.668Z,4.77
2018-04-29T17:14:47.191Z,5.57
2018-04-29T17:17:14.723Z,5.20
2018-04-29T17:19:42.236Z,4.60
2018-04-29T17:22:09.764Z,4.60
2018-04-29T17:24:37.289Z,5.97
2018-04-29T17:27:04.829Z,4.50
2018-04-29T17:29:33.116Z,5.37
2018-04-29T17:32:01.413Z,5.30
2018-04-29T17:34:28.936Z,5.70
2018-04-29T17:36:56.472Z,5.40
2018-04-29T17:39:24.000Z,6.60
2018-04-29T17:41:51.542Z,5.80
2018-04-29T17:44:19.820Z,6.90
2018-04-29T17:46:48.131Z,5.80
2018-04-29T17:49:15.649Z,6.00
2018-04-29T17:51:43.959Z,5.90
2018-04-29T17:54:11.479Z,5.90
2018-04-29T17:56:39.000Z,5.80
2018-04-29T17:59:07.296Z,5.40
2018-04-29T18:01:34.815Z,5.20
2018-04-29T18:04:03.115Z,6.53
2018-04-29T18:06:30.641Z,7.27
2018-04-29T18:08:58.940Z,6.07
2018-04-29T18:11:27.215Z,6.37
2018-04-29T18:13:55.517Z,6.40
2018-04-29T18:16:23.031Z,6.17
2018-04-29T18:18:50.572Z,6.63
2018-04-29T18:21:18.145Z,6.30
2018-04-29T18:23:45.641Z,6.50
2018-04-29T18:26:14.634Z,6.37
2018-04-29T18:28:42.935Z,5.93
2018-04-29T18:31:10.455Z,6.33
2018-04-29T18:33:38.767Z,6.20
2018-04-29T18:36:06.284Z,7.07
2018-04-29T18:38:33.816Z,6.70
2018-04-29T18:41:01.336Z,6.77
2018-04-29T18:43:29.620Z,6.63
2018-04-29T18:45:57.152Z,6.20
2018-04-29T18:48:24.669Z,7.57
2018-04-29T18:50:52.402Z,6.77
2018-04-29T18:53:19.727Z,6.83
2018-04-29T18:55:47.263Z,6.53
2018-04-29T18:58:14.779Z,6.40
2018-04-29T19:00:43.091Z,7.03
2018-04-29T19:03:10.616Z,7.47
2018-04-29T19:08:34.700Z,6.60
2018-04-29T19:11:02.231Z,6.87
2018-04-29T19:13:29.745Z,5.90
2018-04-29T19:15:58.044Z,5.90
2018-04-29T19:18:25.551Z,6.17
2018-04-29T19:20:53.086Z,5.03
2018-04-29T19:23:20.595Z,6.67
2018-04-29T19:25:48.875Z,5.80
2018-04-29T19:28:17.181Z,5.50
2018-04-29T19:30:44.700Z,6.43
2018-04-29T19:33:12.237Z,6.23
2018-04-29T19:35:39.765Z,6.80
2018-04-29T19:38:07.313Z,6.20
2018-04-29T19:40:34.827Z,5.93
2018-04-29T19:43:02.356Z,6.03
2018-04-29T19:45:29.875Z,6.13
2018-04-29T19:47:58.176Z,5.90
2018-04-29T19:50:25.698Z,4.70
2018-04-29T19:52:53.242Z,5.80
2018-04-29T19:55:20.759Z,5.10
2018-04-29T19:57:48.304Z,5.80
2018-04-29T20:00:17.608Z,6.10
2018-04-29T20:02:45.920Z,5.67
2018-04-29T20:05:13.441Z,6.00
2018-04-29T20:07:41.768Z,5.70
2018-04-29T20:10:09.287Z,6.23
2018-04-29T20:12:37.571Z,5.40
2018-04-29T20:15:05.874Z,5.90
2018-04-29T20:17:33.396Z,5.73
2018-04-29T20:20:00.938Z,5.33
2018-04-29T20:22:28.455Z,5.60
2018-04-29T20:24:55.991Z,6.57
2018-04-29T20:27:24.284Z,5.67
2018-04-29T20:29:52.676Z,5.53
2018-04-29T20:32:31.828Z,7.30
2018-04-29T20:34:59.368Z,6.00
2018-04-29T20:37:26.892Z,6.30
2018-04-29T20:39:54.429Z,6.47
2018-04-29T20:42:21.944Z,6.77
2018-04-29T20:44:50.245Z,6.53
2018-04-29T20:47:17.756Z,7.40
2018-04-29T20:49:45.292Z,6.20
2018-04-29T20:52:12.804Z,6.30
2018-04-29T20:54:41.093Z,6.70
2018-04-29T20:57:08.631Z,6.33
2018-04-29T20:59:36.149Z,7.07
2018-04-29T21:02:03.688Z,6.27
2018-04-29T21:04:31.208Z,6.03
2018-04-29T21:06:58.744Z,6.80
2018-04-29T21:09:26.255Z,6.47
2018-04-29T21:11:54.560Z,6.47
2018-04-29T21:14:22.080Z,7.30
2018-04-29T21:16:49.611Z,7.43
2018-04-29T21:19:17.123Z,6.73
2018-04-29T21:21:45.428Z,6.10
2018-04-29T21:24:12.944Z,7.30
2018-04-29T21:26:40.484Z,7.17
2018-04-29T21:29:08.007Z,7.70
2018-04-29T21:31:35.549Z,7.40
2018-04-29T21:34:03.829Z,7.30
2018-04-29T21:36:32.144Z,7.10
2018-04-29T21:38:59.657Z,7.90
2018-04-29T21:41:27.947Z,7.33
2018-04-29T21:43:56.247Z,7.97
2018-04-29T21:46:23.761Z,7.43
2018-04-29T21:48:51.298Z,8.50
2018-04-29T21:51:18.815Z,7.93
2018-04-29T21:53:47.117Z,7.27
2018-04-29T21:56:14.661Z,7.10
2018-04-29T21:58:42.948Z,7.23
2018-04-29T22:01:10.467Z,7.47
2018-04-29T22:03:38.034Z,9.57
2018-04-29T22:06:05.556Z,7.20
2018-04-29T22:08:33.093Z,7.60
2018-04-29T22:11:00.616Z,7.43
2018-04-29T22:13:28.157Z,9.00
2018-04-29T22:15:55.676Z,7.83
2018-04-29T22:18:23.216Z,7.40
2018-04-29T22:20:50.734Z,8.20
2018-04-29T22:23:18.247Z,8.97
2018-04-29T22:25:46.548Z,9.07
2018-04-29T22:28:14.076Z,8.23
2018-04-29T22:30:41.616Z,7.77
2018-04-29T22:33:09.131Z,7.80
2018-04-29T22:35:36.665Z,8.27
2018-04-29T22:38:04.172Z,8.40
2018-04-29T22:40:31.708Z,9.53
2018-04-29T22:42:59.227Z,7.97
2018-04-29T22:45:26.769Z,8.07
2018-04-29T22:47:54.284Z,8.37
2018-04-29T22:50:22.589Z,8.37
2018-04-29T22:52:50.109Z,9.27
2018-04-29T22:55:18.407Z,9.83
2018-04-29T22:57:45.929Z,8.23
2018-04-29T23:00:13.469Z,9.50
2018-04-29T23:02:41.009Z,8.97
2018-04-29T23:05:08.524Z,8.13
2018-04-29T23:07:36.061Z,8.43
2018-04-29T23:10:03.581Z,9.23
2018-04-29T23:12:31.111Z,8.50
2018-04-29T23:14:58.623Z,7.90
2018-04-29T23:17:26.156Z,8.97
2018-04-29T23:19:54.440Z,8.40
2018-04-29T23:22:21.983Z,8.50
2018-04-29T23:24:50.269Z,7.90
2018-04-29T23:27:18.571Z,8.37
2018-04-29T23:29:46.084Z,7.13
2018-04-29T23:32:13.595Z,7.97
2018-04-29T23:34:41.128Z,7.33
2018-04-29T23:37:08.644Z,7.47
2018-04-29T23:39:36.179Z,8.37
2018-04-29T23:42:03.687Z,8.23
2018-04-29T23:44:31.225Z,8.07
2018-04-29T23:46:58.739Z,7.70
2018-04-29T23:49:27.040Z,8.20
2018-04-29T23:51:54.567Z,8.30
2018-04-29T23:54:22.110Z,7.83
2018-04-29T23:56:49.619Z,8.03
2018-04-29T23:59:17.911Z,8.10
